DAL1696 KLAX-KLAS
Flight info
| Callsign | DAL1696 |
|---|---|
| Flight time | N/A |
| Altitude | 27000 |
| Route | OSHNN1 MISEN RNDRZ3 |
| Aircraft | A20N/M-SDE1FGHILORVWXY/LB1 |
Departure
| Time | 2026-05-04 04:59 |
|---|---|
| Airport | Los Angeles International Airport (KLAX) |
Arrival
| Time | N/A |
|---|---|
| Airport | Harry Reid International Airport (KLAS) |
| Time | Latitude | Longitude | Altitude | Speed | Heading |
|---|---|---|---|---|---|
| 2026-05-04 04:00 | 33.94044 | -118.40254 | 125 ft | 0 kts | 84° |
| 2026-05-04 04:37 | 33.94043 | -118.40274 | 124 ft | 2 kts | 99° |
| 2026-05-04 04:37 | 33.94048 | -118.40294 | 122 ft | 2 kts | 122° |
| 2026-05-04 04:38 | 33.94059 | -118.40310 | 122 ft | 2 kts | 144° |
| 2026-05-04 04:38 | 33.94063 | -118.40314 | 123 ft | 2 kts | 166° |
| 2026-05-04 04:38 | 33.94051 | -118.40312 | 121 ft | 2 kts | 173° |
| 2026-05-04 04:38 | 33.94040 | -118.40311 | 122 ft | 2 kts | 174° |
| 2026-05-04 04:39 | 33.94029 | -118.40309 | 123 ft | 0 kts | 174° |
| 2026-05-04 04:49 | 33.94007 | -118.40307 | 123 ft | 7 kts | 174° |
| 2026-05-04 04:49 | 33.93940 | -118.40297 | 123 ft | 13 kts | 173° |
| 2026-05-04 04:50 | 33.93859 | -118.40258 | 123 ft | 12 kts | 115° |
| 2026-05-04 04:50 | 33.93864 | -118.40138 | 122 ft | 18 kts | 83° |
| 2026-05-04 04:50 | 33.93883 | -118.39959 | 122 ft | 26 kts | 82° |
| 2026-05-04 04:50 | 33.93905 | -118.39750 | 125 ft | 18 kts | 83° |
| 2026-05-04 04:51 | 33.93919 | -118.39620 | 125 ft | 10 kts | 83° |
| 2026-05-04 04:51 | 33.93928 | -118.39527 | 123 ft | 14 kts | 83° |
| 2026-05-04 04:51 | 33.93937 | -118.39435 | 123 ft | 12 kts | 83° |
| 2026-05-04 04:51 | 33.93950 | -118.39306 | 124 ft | 19 kts | 83° |
| 2026-05-04 04:52 | 33.93963 | -118.39181 | 123 ft | 10 kts | 83° |
| 2026-05-04 04:52 | 33.93974 | -118.39071 | 125 ft | 17 kts | 83° |
| 2026-05-04 04:52 | 33.93992 | -118.38901 | 125 ft | 23 kts | 83° |
| 2026-05-04 04:52 | 33.94001 | -118.38794 | 123 ft | 14 kts | 83° |
| 2026-05-04 04:53 | 33.94017 | -118.38649 | 124 ft | 21 kts | 82° |
| 2026-05-04 04:53 | 33.94035 | -118.38472 | 122 ft | 21 kts | 83° |
| 2026-05-04 04:53 | 33.94039 | -118.38430 | 122 ft | 4 kts | 83° |
| 2026-05-04 04:53 | 33.94046 | -118.38364 | 125 ft | 12 kts | 83° |
| 2026-05-04 04:54 | 33.94059 | -118.38237 | 125 ft | 19 kts | 83° |
| 2026-05-04 04:54 | 33.94073 | -118.38112 | 125 ft | 16 kts | 82° |
| 2026-05-04 04:54 | 33.94077 | -118.38047 | 125 ft | 0 kts | 97° |
| 2026-05-04 04:57 | 33.94077 | -118.38046 | 125 ft | 1 kts | 98° |
| 2026-05-04 04:58 | 33.94061 | -118.38014 | 126 ft | 8 kts | 139° |
| 2026-05-04 04:58 | 33.93996 | -118.38023 | 123 ft | 13 kts | 226° |
| 2026-05-04 04:58 | 33.93981 | -118.38074 | 122 ft | 0 kts | 262° |
| 2026-05-04 04:58 | 33.93960 | -118.38268 | 123 ft | 66 kts | 262° |
| 2026-05-04 04:59 | 33.93868 | -118.39156 | 123 ft | 143 kts | 263° |
| 2026-05-04 04:59 | 33.93746 | -118.40417 | 775 ft | 151 kts | 263° |
| 2026-05-04 04:59 | 33.93612 | -118.41706 | 1622 ft | 160 kts | 263° |
| 2026-05-04 04:59 | 33.93448 | -118.43069 | 2390 ft | 174 kts | 262° |
| 2026-05-04 05:00 | 33.93238 | -118.44664 | 2549 ft | 205 kts | 258° |
| 2026-05-04 05:00 | 33.92704 | -118.46424 | 2694 ft | 243 kts | 243° |
| 2026-05-04 05:00 | 33.90645 | -118.49727 | 3008 ft | 249 kts | 232° |
| 2026-05-04 05:01 | 33.89536 | -118.51327 | 3163 ft | 252 kts | 231° |
| 2026-05-04 05:01 | 33.88392 | -118.52939 | 3315 ft | 252 kts | 231° |
| 2026-05-04 05:01 | 33.87244 | -118.54529 | 3487 ft | 252 kts | 227° |
| 2026-05-04 05:01 | 33.85750 | -118.55694 | 4008 ft | 265 kts | 200° |
| 2026-05-04 05:02 | 33.83906 | -118.55867 | 5374 ft | 268 kts | 172° |
| 2026-05-04 05:02 | 33.82063 | -118.55394 | 6856 ft | 275 kts | 170° |
| 2026-05-04 05:02 | 33.80194 | -118.54892 | 8318 ft | 275 kts | 170° |